sensor_id;sensor_type;location;lat;lon;timestamp;P1;durP1;ratioP1;P2;durP2;ratioP2
15198;SDS011;7700;48.654;9.070;2023-04-30T00:01:58;7.43;;;6.17;;
15198;SDS011;7700;48.654;9.070;2023-04-30T00:04:24;6.22;;;5.70;;
15198;SDS011;7700;48.654;9.070;2023-04-30T00:06:50;6.63;;;6.03;;
15198;SDS011;7700;48.654;9.070;2023-04-30T00:09:16;6.80;;;6.07;;
15198;SDS011;7700;48.654;9.070;2023-04-30T00:11:49;6.93;;;5.30;;
15198;SDS011;7700;48.654;9.070;2023-04-30T00:14:15;5.80;;;5.30;;
15198;SDS011;7700;48.654;9.070;2023-04-30T00:16:41;5.97;;;5.47;;
15198;SDS011;7700;48.654;9.070;2023-04-30T00:19:07;5.47;;;4.97;;
15198;SDS011;7700;48.654;9.070;2023-04-30T00:21:33;6.40;;;5.80;;
15198;SDS011;7700;48.654;9.070;2023-04-30T00:23:59;6.10;;;5.50;;
15198;SDS011;7700;48.654;9.070;2023-04-30T00:26:25;6.63;;;6.03;;
15198;SDS011;7700;48.654;9.070;2023-04-30T00:28:51;6.10;;;5.50;;
15198;SDS011;7700;48.654;9.070;2023-04-30T00:31:17;6.27;;;5.70;;
15198;SDS011;7700;48.654;9.070;2023-04-30T00:33:43;7.20;;;6.50;;
15198;SDS011;7700;48.654;9.070;2023-04-30T00:36:09;5.43;;;4.93;;
15198;SDS011;7700;48.654;9.070;2023-04-30T00:38:35;6.27;;;5.67;;
15198;SDS011;7700;48.654;9.070;2023-04-30T00:41:01;6.67;;;5.83;;
15198;SDS011;7700;48.654;9.070;2023-04-30T00:43:26;6.47;;;5.90;;
15198;SDS011;7700;48.654;9.070;2023-04-30T00:45:53;6.20;;;5.70;;
15198;SDS011;7700;48.654;9.070;2023-04-30T00:48:18;7.03;;;5.87;;
15198;SDS011;7700;48.654;9.070;2023-04-30T00:50:44;5.73;;;5.13;;
15198;SDS011;7700;48.654;9.070;2023-04-30T00:53:11;6.67;;;5.83;;
15198;SDS011;7700;48.654;9.070;2023-04-30T00:55:38;6.43;;;5.50;;
15198;SDS011;7700;48.654;9.070;2023-04-30T00:58:05;6.63;;;6.03;;
15198;SDS011;7700;48.654;9.070;2023-04-30T01:00:31;7.63;;;5.53;;
15198;SDS011;7700;48.654;9.070;2023-04-30T01:02:58;6.67;;;5.97;;
15198;SDS011;7700;48.654;9.070;2023-04-30T01:05:24;7.10;;;5.97;;
15198;SDS011;7700;48.654;9.070;2023-04-30T01:07:50;7.00;;;5.23;;
15198;SDS011;7700;48.654;9.070;2023-04-30T01:10:17;6.07;;;5.30;;
15198;SDS011;7700;48.654;9.070;2023-04-30T01:13:05;6.00;;;5.40;;
15198;SDS011;7700;48.654;9.070;2023-04-30T01:18:06;6.80;;;6.10;;
15198;SDS011;7700;48.654;9.070;2023-04-30T01:20:34;5.73;;;5.23;;
15198;SDS011;7700;48.654;9.070;2023-04-30T01:28:14;6.33;;;5.70;;
15198;SDS011;7700;48.654;9.070;2023-04-30T01:30:41;6.63;;;5.90;;
15198;SDS011;7700;48.654;9.070;2023-04-30T01:33:08;6.37;;;5.77;;
15198;SDS011;7700;48.654;9.070;2023-04-30T01:40:52;5.80;;;5.30;;
15198;SDS011;7700;48.654;9.070;2023-04-30T01:43:31;5.50;;;5.00;;
15198;SDS011;7700;48.654;9.070;2023-04-30T01:48:33;6.37;;;5.87;;
15198;SDS011;7700;48.654;9.070;2023-04-30T01:53:48;6.80;;;6.17;;
15198;SDS011;7700;48.654;9.070;2023-04-30T01:56:22;6.37;;;5.77;;
15198;SDS011;7700;48.654;9.070;2023-04-30T01:58:51;6.83;;;6.00;;
15198;SDS011;7700;48.654;9.070;2023-04-30T02:01:28;6.93;;;6.33;;
15198;SDS011;7700;48.654;9.070;2023-04-30T02:03:54;7.10;;;6.27;;
15198;SDS011;7700;48.654;9.070;2023-04-30T02:06:20;7.30;;;6.57;;
15198;SDS011;7700;48.654;9.070;2023-04-30T02:08:46;7.70;;;6.90;;
15198;SDS011;7700;48.654;9.070;2023-04-30T02:11:12;7.13;;;6.43;;
15198;SDS011;7700;48.654;9.070;2023-04-30T02:13:38;7.80;;;6.60;;
15198;SDS011;7700;48.654;9.070;2023-04-30T02:16:04;8.40;;;7.37;;
15198;SDS011;7700;48.654;9.070;2023-04-30T02:18:30;7.67;;;6.97;;
15198;SDS011;7700;48.654;9.070;2023-04-30T02:20:56;7.97;;;7.17;;
15198;SDS011;7700;48.654;9.070;2023-04-30T02:23:22;7.73;;;7.03;;
15198;SDS011;7700;48.654;9.070;2023-04-30T02:25:48;7.67;;;6.93;;
15198;SDS011;7700;48.654;9.070;2023-04-30T02:28:14;7.70;;;7.00;;
15198;SDS011;7700;48.654;9.070;2023-04-30T02:30:40;8.47;;;7.67;;
15198;SDS011;7700;48.654;9.070;2023-04-30T02:33:06;8.33;;;7.53;;
15198;SDS011;7700;48.654;9.070;2023-04-30T02:35:32;7.83;;;7.07;;
15198;SDS011;7700;48.654;9.070;2023-04-30T02:37:58;7.70;;;7.00;;
15198;SDS011;7700;48.654;9.070;2023-04-30T02:40:24;8.73;;;7.63;;
15198;SDS011;7700;48.654;9.070;2023-04-30T02:42:50;8.40;;;7.60;;
15198;SDS011;7700;48.654;9.070;2023-04-30T02:45:18;9.07;;;8.17;;
15198;SDS011;7700;48.654;9.070;2023-04-30T02:47:44;8.87;;;8.00;;
15198;SDS011;7700;48.654;9.070;2023-04-30T02:50:11;8.83;;;7.93;;
15198;SDS011;7700;48.654;9.070;2023-04-30T02:52:37;8.77;;;7.97;;
15198;SDS011;7700;48.654;9.070;2023-04-30T02:55:03;9.40;;;8.50;;
15198;SDS011;7700;48.654;9.070;2023-04-30T02:57:29;9.17;;;8.20;;
15198;SDS011;7700;48.654;9.070;2023-04-30T02:59:55;9.37;;;8.47;;
15198;SDS011;7700;48.654;9.070;2023-04-30T03:02:21;11.53;;;9.50;;
15198;SDS011;7700;48.654;9.070;2023-04-30T03:04:47;9.67;;;8.67;;
15198;SDS011;7700;48.654;9.070;2023-04-30T03:07:14;10.63;;;9.63;;
15198;SDS011;7700;48.654;9.070;2023-04-30T03:09:40;10.10;;;9.10;;
15198;SDS011;7700;48.654;9.070;2023-04-30T03:12:06;9.47;;;8.57;;
15198;SDS011;7700;48.654;9.070;2023-04-30T03:14:32;9.43;;;8.63;;
15198;SDS011;7700;48.654;9.070;2023-04-30T03:16:57;10.30;;;8.47;;
15198;SDS011;7700;48.654;9.070;2023-04-30T03:19:23;10.83;;;9.20;;
15198;SDS011;7700;48.654;9.070;2023-04-30T03:21:50;10.27;;;9.07;;
15198;SDS011;7700;48.654;9.070;2023-04-30T03:24:16;10.53;;;9.53;;
15198;SDS011;7700;48.654;9.070;2023-04-30T03:26:43;9.70;;;8.77;;
15198;SDS011;7700;48.654;9.070;2023-04-30T03:29:09;10.43;;;9.43;;
15198;SDS011;7700;48.654;9.070;2023-04-30T03:31:35;10.87;;;9.80;;
15198;SDS011;7700;48.654;9.070;2023-04-30T03:34:01;13.07;;;10.43;;
15198;SDS011;7700;48.654;9.070;2023-04-30T03:36:27;11.23;;;10.13;;
15198;SDS011;7700;48.654;9.070;2023-04-30T03:38:53;11.97;;;10.40;;
15198;SDS011;7700;48.654;9.070;2023-04-30T03:41:19;11.33;;;10.20;;
15198;SDS011;7700;48.654;9.070;2023-04-30T03:43:45;11.50;;;10.40;;
15198;SDS011;7700;48.654;9.070;2023-04-30T03:46:11;12.43;;;10.23;;
15198;SDS011;7700;48.654;9.070;2023-04-30T03:48:37;11.23;;;10.03;;
15198;SDS011;7700;48.654;9.070;2023-04-30T03:51:03;11.87;;;9.27;;
15198;SDS011;7700;48.654;9.070;2023-04-30T03:53:29;10.27;;;9.27;;
15198;SDS011;7700;48.654;9.070;2023-04-30T03:55:55;10.73;;;9.63;;
15198;SDS011;7700;48.654;9.070;2023-04-30T03:58:21;11.20;;;9.90;;
15198;SDS011;7700;48.654;9.070;2023-04-30T04:00:47;11.20;;;10.00;;
15198;SDS011;7700;48.654;9.070;2023-04-30T04:03:13;12.00;;;10.80;;
15198;SDS011;7700;48.654;9.070;2023-04-30T04:05:39;11.13;;;9.57;;
15198;SDS011;7700;48.654;9.070;2023-04-30T04:08:06;10.63;;;9.67;;
15198;SDS011;7700;48.654;9.070;2023-04-30T04:10:33;10.10;;;9.10;;
15198;SDS011;7700;48.654;9.070;2023-04-30T04:12:59;11.03;;;9.13;;
15198;SDS011;7700;48.654;9.070;2023-04-30T04:15:25;11.53;;;9.57;;
15198;SDS011;7700;48.654;9.070;2023-04-30T04:17:51;10.40;;;9.10;;
15198;SDS011;7700;48.654;9.070;2023-04-30T04:20:17;10.57;;;9.50;;
15198;SDS011;7700;48.654;9.070;2023-04-30T04:22:43;12.00;;;10.50;;
15198;SDS011;7700;48.654;9.070;2023-04-30T04:25:09;9.77;;;8.77;;
15198;SDS011;7700;48.654;9.070;2023-04-30T04:27:35;9.40;;;8.40;;
15198;SDS011;7700;48.654;9.070;2023-04-30T04:30:02;11.10;;;10.00;;
15198;SDS011;7700;48.654;9.070;2023-04-30T04:32:28;10.40;;;9.30;;
15198;SDS011;7700;48.654;9.070;2023-04-30T04:34:54;10.53;;;9.23;;
15198;SDS011;7700;48.654;9.070;2023-04-30T04:37:20;11.47;;;9.43;;
15198;SDS011;7700;48.654;9.070;2023-04-30T04:39:46;9.90;;;8.90;;
15198;SDS011;7700;48.654;9.070;2023-04-30T04:42:14;10.20;;;9.20;;
15198;SDS011;7700;48.654;9.070;2023-04-30T04:44:40;11.33;;;9.73;;
15198;SDS011;7700;48.654;9.070;2023-04-30T04:47:06;10.43;;;9.37;;
15198;SDS011;7700;48.654;9.070;2023-04-30T04:49:34;9.80;;;8.83;;
15198;SDS011;7700;48.654;9.070;2023-04-30T04:52:00;9.73;;;8.83;;
15198;SDS011;7700;48.654;9.070;2023-04-30T04:54:26;10.13;;;9.13;;
15198;SDS011;7700;48.654;9.070;2023-04-30T04:56:53;11.00;;;9.90;;
15198;SDS011;7700;48.654;9.070;2023-04-30T04:59:20;10.20;;;9.20;;
15198;SDS011;7700;48.654;9.070;2023-04-30T05:01:46;10.10;;;9.00;;
15198;SDS011;7700;48.654;9.070;2023-04-30T05:04:11;10.50;;;9.30;;
15198;SDS011;7700;48.654;9.070;2023-04-30T05:06:38;9.77;;;8.87;;
15198;SDS011;7700;48.654;9.070;2023-04-30T05:09:06;10.23;;;9.03;;
15198;SDS011;7700;48.654;9.070;2023-04-30T05:11:33;9.97;;;9.07;;
15198;SDS011;7700;48.654;9.070;2023-04-30T05:13:59;9.77;;;8.80;;
15198;SDS011;7700;48.654;9.070;2023-04-30T05:16:25;11.63;;;9.30;;
15198;SDS011;7700;48.654;9.070;2023-04-30T05:18:51;10.13;;;9.13;;
15198;SDS011;7700;48.654;9.070;2023-04-30T05:21:17;10.20;;;9.20;;
15198;SDS011;7700;48.654;9.070;2023-04-30T05:23:43;9.57;;;8.57;;
15198;SDS011;7700;48.654;9.070;2023-04-30T05:26:09;10.43;;;9.43;;
15198;SDS011;7700;48.654;9.070;2023-04-30T05:28:35;10.53;;;9.27;;
15198;SDS011;7700;48.654;9.070;2023-04-30T05:31:01;9.80;;;8.90;;
15198;SDS011;7700;48.654;9.070;2023-04-30T05:33:27;9.87;;;8.57;;
15198;SDS011;7700;48.654;9.070;2023-04-30T05:35:53;9.57;;;8.60;;
15198;SDS011;7700;48.654;9.070;2023-04-30T05:38:19;10.07;;;9.07;;
15198;SDS011;7700;48.654;9.070;2023-04-30T05:40:45;9.30;;;8.50;;
15198;SDS011;7700;48.654;9.070;2023-04-30T05:43:11;10.93;;;9.37;;
15198;SDS011;7700;48.654;9.070;2023-04-30T05:45:37;8.87;;;7.97;;
15198;SDS011;7700;48.654;9.070;2023-04-30T05:48:03;9.37;;;8.30;;
15198;SDS011;7700;48.654;9.070;2023-04-30T05:50:29;10.07;;;8.90;;
15198;SDS011;7700;48.654;9.070;2023-04-30T05:52:55;9.17;;;8.27;;
15198;SDS011;7700;48.654;9.070;2023-04-30T05:55:21;9.87;;;8.97;;
15198;SDS011;7700;48.654;9.070;2023-04-30T05:57:47;9.77;;;8.77;;
15198;SDS011;7700;48.654;9.070;2023-04-30T06:00:13;9.10;;;8.20;;
15198;SDS011;7700;48.654;9.070;2023-04-30T06:02:46;9.80;;;8.87;;
15198;SDS011;7700;48.654;9.070;2023-04-30T06:05:12;9.73;;;8.83;;
15198;SDS011;7700;48.654;9.070;2023-04-30T06:07:38;9.80;;;8.90;;
15198;SDS011;7700;48.654;9.070;2023-04-30T06:10:04;9.47;;;8.57;;
15198;SDS011;7700;48.654;9.070;2023-04-30T06:12:31;10.87;;;8.80;;
15198;SDS011;7700;48.654;9.070;2023-04-30T06:14:57;9.83;;;8.93;;
15198;SDS011;7700;48.654;9.070;2023-04-30T06:17:23;10.03;;;9.03;;
15198;SDS011;7700;48.654;9.070;2023-04-30T06:19:49;10.20;;;9.17;;
15198;SDS011;7700;48.654;9.070;2023-04-30T06:22:15;9.90;;;9.00;;
15198;SDS011;7700;48.654;9.070;2023-04-30T06:24:41;9.97;;;9.07;;
15198;SDS011;7700;48.654;9.070;2023-04-30T06:27:07;9.80;;;8.90;;
15198;SDS011;7700;48.654;9.070;2023-04-30T06:29:40;10.07;;;8.93;;
15198;SDS011;7700;48.654;9.070;2023-04-30T06:32:06;10.93;;;9.73;;
15198;SDS011;7700;48.654;9.070;2023-04-30T06:34:32;10.23;;;9.10;;
15198;SDS011;7700;48.654;9.070;2023-04-30T06:36:58;9.63;;;8.77;;
15198;SDS011;7700;48.654;9.070;2023-04-30T06:39:24;9.90;;;8.87;;
15198;SDS011;7700;48.654;9.070;2023-04-30T06:41:50;9.77;;;8.87;;
15198;SDS011;7700;48.654;9.070;2023-04-30T06:44:16;10.13;;;9.13;;
15198;SDS011;7700;48.654;9.070;2023-04-30T06:46:43;10.47;;;9.00;;
15198;SDS011;7700;48.654;9.070;2023-04-30T06:49:09;9.00;;;8.20;;
15198;SDS011;7700;48.654;9.070;2023-04-30T06:51:35;11.57;;;10.00;;
15198;SDS011;7700;48.654;9.070;2023-04-30T06:54:01;9.50;;;8.70;;
15198;SDS011;7700;48.654;9.070;2023-04-30T06:56:26;11.37;;;9.40;;
15198;SDS011;7700;48.654;9.070;2023-04-30T06:58:52;9.97;;;8.87;;
15198;SDS011;7700;48.654;9.070;2023-04-30T07:01:18;9.47;;;8.60;;
15198;SDS011;7700;48.654;9.070;2023-04-30T07:03:44;9.20;;;8.40;;
15198;SDS011;7700;48.654;9.070;2023-04-30T07:06:10;8.77;;;7.97;;
15198;SDS011;7700;48.654;9.070;2023-04-30T07:08:36;9.57;;;8.68;;
15198;SDS011;7700;48.654;9.070;2023-04-30T07:11:04;8.90;;;8.00;;
15198;SDS011;7700;48.654;9.070;2023-04-30T07:13:31;10.73;;;7.88;;
15198;SDS011;7700;48.654;9.070;2023-04-30T07:15:56;7.80;;;7.10;;
15198;SDS011;7700;48.654;9.070;2023-04-30T07:18:23;8.05;;;7.35;;
15198;SDS011;7700;48.654;9.070;2023-04-30T07:20:49;8.43;;;7.53;;
15198;SDS011;7700;48.654;9.070;2023-04-30T07:23:15;8.57;;;7.78;;
15198;SDS011;7700;48.654;9.070;2023-04-30T07:25:41;8.63;;;7.43;;
15198;SDS011;7700;48.654;9.070;2023-04-30T07:28:08;7.82;;;7.13;;
15198;SDS011;7700;48.654;9.070;2023-04-30T07:30:34;7.45;;;6.85;;
15198;SDS011;7700;48.654;9.070;2023-04-30T07:33:00;9.10;;;8.30;;
15198;SDS011;7700;48.654;9.070;2023-04-30T07:35:26;7.38;;;6.78;;
15198;SDS011;7700;48.654;9.070;2023-04-30T07:37:52;7.63;;;6.75;;
15198;SDS011;7700;48.654;9.070;2023-04-30T07:40:18;7.50;;;6.80;;
15198;SDS011;7700;48.654;9.070;2023-04-30T07:42:44;7.57;;;6.50;;
15198;SDS011;7700;48.654;9.070;2023-04-30T07:45:11;7.40;;;6.80;;
15198;SDS011;7700;48.654;9.070;2023-04-30T07:47:37;7.00;;;6.38;;
15198;SDS011;7700;48.654;9.070;2023-04-30T07:50:03;6.75;;;6.15;;
15198;SDS011;7700;48.654;9.070;2023-04-30T07:52:30;6.70;;;6.10;;
15198;SDS011;7700;48.654;9.070;2023-04-30T07:55:02;6.55;;;5.95;;
15198;SDS011;7700;48.654;9.070;2023-04-30T07:57:28;7.03;;;6.43;;
15198;SDS011;7700;48.654;9.070;2023-04-30T07:59:54;6.35;;;5.85;;
15198;SDS011;7700;48.654;9.070;2023-04-30T08:02:21;6.47;;;5.88;;
15198;SDS011;7700;48.654;9.070;2023-04-30T08:04:47;5.75;;;5.25;;
15198;SDS011;7700;48.654;9.070;2023-04-30T08:07:13;5.28;;;4.88;;
15198;SDS011;7700;48.654;9.070;2023-04-30T08:09:42;5.80;;;5.10;;
15198;SDS011;7700;48.654;9.070;2023-04-30T08:12:08;5.97;;;5.47;;
15198;SDS011;7700;48.654;9.070;2023-04-30T08:14:35;5.90;;;5.38;;
15198;SDS011;7700;48.654;9.070;2023-04-30T08:17:01;5.93;;;5.43;;
15198;SDS011;7700;48.654;9.070;2023-04-30T08:19:27;5.72;;;5.20;;
15198;SDS011;7700;48.654;9.070;2023-04-30T08:21:53;5.30;;;4.90;;
15198;SDS011;7700;48.654;9.070;2023-04-30T08:24:20;5.50;;;4.90;;
15198;SDS011;7700;48.654;9.070;2023-04-30T08:26:46;5.85;;;5.35;;
15198;SDS011;7700;48.654;9.070;2023-04-30T08:29:12;5.47;;;5.07;;
15198;SDS011;7700;48.654;9.070;2023-04-30T08:31:38;5.32;;;4.82;;
15198;SDS011;7700;48.654;9.070;2023-04-30T08:34:04;5.22;;;4.82;;
15198;SDS011;7700;48.654;9.070;2023-04-30T08:36:30;5.43;;;4.93;;
15198;SDS011;7700;48.654;9.070;2023-04-30T08:38:56;5.70;;;5.20;;
15198;SDS011;7700;48.654;9.070;2023-04-30T08:41:24;5.65;;;5.25;;
15198;SDS011;7700;48.654;9.070;2023-04-30T08:43:51;5.80;;;4.90;;
15198;SDS011;7700;48.654;9.070;2023-04-30T08:46:19;5.10;;;4.60;;
15198;SDS011;7700;48.654;9.070;2023-04-30T08:48:45;5.63;;;4.60;;
15198;SDS011;7700;48.654;9.070;2023-04-30T08:51:14;4.78;;;4.38;;
15198;SDS011;7700;48.654;9.070;2023-04-30T08:53:41;4.68;;;4.32;;
15198;SDS011;7700;48.654;9.070;2023-04-30T08:56:10;6.03;;;5.07;;
15198;SDS011;7700;48.654;9.070;2023-04-30T08:58:36;4.30;;;4.00;;
15198;SDS011;7700;48.654;9.070;2023-04-30T09:01:02;5.97;;;5.20;;
15198;SDS011;7700;48.654;9.070;2023-04-30T09:03:29;5.10;;;4.70;;
15198;SDS011;7700;48.654;9.070;2023-04-30T09:05:55;4.40;;;4.00;;
15198;SDS011;7700;48.654;9.070;2023-04-30T09:11:25;5.00;;;3.90;;
15198;SDS011;7700;48.654;9.070;2023-04-30T09:13:52;3.85;;;3.55;;
15198;SDS011;7700;48.654;9.070;2023-04-30T09:16:18;3.58;;;3.28;;
15198;SDS011;7700;48.654;9.070;2023-04-30T09:18:44;3.80;;;3.45;;
15198;SDS011;7700;48.654;9.070;2023-04-30T09:21:11;3.13;;;2.92;;
15198;SDS011;7700;48.654;9.070;2023-04-30T09:23:52;4.63;;;3.60;;
15198;SDS011;7700;48.654;9.070;2023-04-30T09:26:35;3.85;;;3.40;;
15198;SDS011;7700;48.654;9.070;2023-04-30T09:29:02;3.65;;;3.33;;
15198;SDS011;7700;48.654;9.070;2023-04-30T09:31:32;4.10;;;3.75;;
15198;SDS011;7700;48.654;9.070;2023-04-30T09:33:59;3.97;;;3.67;;
15198;SDS011;7700;48.654;9.070;2023-04-30T09:36:24;5.70;;;3.45;;
15198;SDS011;7700;48.654;9.070;2023-04-30T09:38:51;4.05;;;3.75;;
15198;SDS011;7700;48.654;9.070;2023-04-30T09:41:24;4.30;;;3.90;;
15198;SDS011;7700;48.654;9.070;2023-04-30T09:43:51;4.13;;;3.83;;
15198;SDS011;7700;48.654;9.070;2023-04-30T09:46:17;3.65;;;3.35;;
15198;SDS011;7700;48.654;9.070;2023-04-30T09:48:44;3.70;;;3.40;;
15198;SDS011;7700;48.654;9.070;2023-04-30T09:51:10;3.60;;;3.40;;
15198;SDS011;7700;48.654;9.070;2023-04-30T09:53:36;3.72;;;3.35;;
15198;SDS011;7700;48.654;9.070;2023-04-30T09:56:05;4.00;;;3.70;;
15198;SDS011;7700;48.654;9.070;2023-04-30T09:58:34;3.80;;;3.45;;
15198;SDS011;7700;48.654;9.070;2023-04-30T10:04:01;3.90;;;3.60;;
15198;SDS011;7700;48.654;9.070;2023-04-30T10:06:34;4.00;;;3.60;;
15198;SDS011;7700;48.654;9.070;2023-04-30T10:09:00;4.00;;;3.70;;
15198;SDS011;7700;48.654;9.070;2023-04-30T10:11:27;3.55;;;3.25;;
15198;SDS011;7700;48.654;9.070;2023-04-30T10:14:11;3.67;;;3.38;;
15198;SDS011;7700;48.654;9.070;2023-04-30T10:19:11;4.20;;;3.80;;
15198;SDS011;7700;48.654;9.070;2023-04-30T10:21:39;3.97;;;3.55;;
15198;SDS011;7700;48.654;9.070;2023-04-30T10:24:05;3.53;;;3.22;;
15198;SDS011;7700;48.654;9.070;2023-04-30T10:26:31;3.47;;;3.17;;
15198;SDS011;7700;48.654;9.070;2023-04-30T10:28:57;3.75;;;3.45;;
15198;SDS011;7700;48.654;9.070;2023-04-30T10:31:25;3.70;;;3.40;;
15198;SDS011;7700;48.654;9.070;2023-04-30T10:36:23;3.70;;;3.40;;
15198;SDS011;7700;48.654;9.070;2023-04-30T10:38:51;4.65;;;3.75;;
15198;SDS011;7700;48.654;9.070;2023-04-30T10:41:18;3.92;;;3.63;;
15198;SDS011;7700;48.654;9.070;2023-04-30T10:43:45;3.72;;;3.42;;
15198;SDS011;7700;48.654;9.070;2023-04-30T10:46:20;4.25;;;3.88;;
15198;SDS011;7700;48.654;9.070;2023-04-30T10:48:47;4.35;;;3.95;;
15198;SDS011;7700;48.654;9.070;2023-04-30T10:51:13;4.45;;;4.05;;
15198;SDS011;7700;48.654;9.070;2023-04-30T10:53:39;4.43;;;3.80;;
15198;SDS011;7700;48.654;9.070;2023-04-30T10:56:06;3.30;;;3.10;;
15198;SDS011;7700;48.654;9.070;2023-04-30T10:58:39;3.38;;;2.75;;
15198;SDS011;7700;48.654;9.070;2023-04-30T11:01:07;3.45;;;3.25;;
15198;SDS011;7700;48.654;9.070;2023-04-30T11:03:34;3.60;;;3.30;;
15198;SDS011;7700;48.654;9.070;2023-04-30T11:06:06;3.40;;;3.10;;
15198;SDS011;7700;48.654;9.070;2023-04-30T11:08:36;3.47;;;3.17;;
15198;SDS011;7700;48.654;9.070;2023-04-30T11:11:02;3.15;;;2.95;;
15198;SDS011;7700;48.654;9.070;2023-04-30T11:13:43;3.97;;;2.70;;
15198;SDS011;7700;48.654;9.070;2023-04-30T11:16:09;3.60;;;2.85;;
15198;SDS011;7700;48.654;9.070;2023-04-30T11:18:45;3.00;;;2.80;;
15198;SDS011;7700;48.654;9.070;2023-04-30T11:21:11;3.05;;;2.85;;
15198;SDS011;7700;48.654;9.070;2023-04-30T11:23:40;3.30;;;2.95;;
15198;SDS011;7700;48.654;9.070;2023-04-30T11:26:07;3.08;;;2.88;;
15198;SDS011;7700;48.654;9.070;2023-04-30T11:28:35;3.17;;;2.88;;
15198;SDS011;7700;48.654;9.070;2023-04-30T11:31:01;3.28;;;3.00;;
15198;SDS011;7700;48.654;9.070;2023-04-30T11:33:28;3.60;;;2.83;;
15198;SDS011;7700;48.654;9.070;2023-04-30T11:35:55;2.78;;;2.58;;
15198;SDS011;7700;48.654;9.070;2023-04-30T11:38:23;2.97;;;2.72;;
15198;SDS011;7700;48.654;9.070;2023-04-30T11:40:50;2.72;;;2.53;;
15198;SDS011;7700;48.654;9.070;2023-04-30T11:43:24;2.90;;;2.70;;
15198;SDS011;7700;48.654;9.070;2023-04-30T11:46:00;2.80;;;2.60;;
15198;SDS011;7700;48.654;9.070;2023-04-30T11:48:33;2.70;;;2.50;;
15198;SDS011;7700;48.654;9.070;2023-04-30T11:51:01;3.15;;;2.85;;
15198;SDS011;7700;48.654;9.070;2023-04-30T11:53:28;3.03;;;2.83;;
15198;SDS011;7700;48.654;9.070;2023-04-30T11:55:54;3.17;;;2.88;;
15198;SDS011;7700;48.654;9.070;2023-04-30T11:58:20;2.80;;;2.60;;
15198;SDS011;7700;48.654;9.070;2023-04-30T12:00:58;2.90;;;2.67;;
15198;SDS011;7700;48.654;9.070;2023-04-30T12:03:24;3.05;;;2.85;;
15198;SDS011;7700;48.654;9.070;2023-04-30T12:05:51;3.97;;;2.90;;
15198;SDS011;7700;48.654;9.070;2023-04-30T12:08:18;2.78;;;2.58;;
15198;SDS011;7700;48.654;9.070;2023-04-30T12:10:44;3.05;;;2.70;;
15198;SDS011;7700;48.654;9.070;2023-04-30T12:13:13;3.50;;;3.20;;
15198;SDS011;7700;48.654;9.070;2023-04-30T12:15:40;3.97;;;2.97;;
15198;SDS011;7700;48.654;9.070;2023-04-30T12:18:10;3.28;;;3.08;;
15198;SDS011;7700;48.654;9.070;2023-04-30T12:20:40;2.90;;;2.70;;
15198;SDS011;7700;48.654;9.070;2023-04-30T12:23:06;2.58;;;2.38;;
15198;SDS011;7700;48.654;9.070;2023-04-30T12:25:39;3.53;;;2.30;;
15198;SDS011;7700;48.654;9.070;2023-04-30T12:28:06;3.30;;;3.03;;
15198;SDS011;7700;48.654;9.070;2023-04-30T12:30:32;3.25;;;2.47;;
15198;SDS011;7700;48.654;9.070;2023-04-30T12:32:58;2.70;;;2.50;;
15198;SDS011;7700;48.654;9.070;2023-04-30T12:35:26;3.60;;;2.72;;
15198;SDS011;7700;48.654;9.070;2023-04-30T12:38:00;3.17;;;2.53;;
15198;SDS011;7700;48.654;9.070;2023-04-30T12:40:26;2.90;;;2.47;;
15198;SDS011;7700;48.654;9.070;2023-04-30T12:42:59;2.42;;;2.22;;
15198;SDS011;7700;48.654;9.070;2023-04-30T12:48:11;2.72;;;2.53;;
15198;SDS011;7700;48.654;9.070;2023-04-30T12:50:37;2.92;;;2.72;;
15198;SDS011;7700;48.654;9.070;2023-04-30T12:53:03;2.53;;;2.33;;
15198;SDS011;7700;48.654;9.070;2023-04-30T12:55:30;2.70;;;2.50;;
15198;SDS011;7700;48.654;9.070;2023-04-30T12:58:05;3.47;;;2.45;;
15198;SDS011;7700;48.654;9.070;2023-04-30T13:03:28;2.45;;;2.25;;
15198;SDS011;7700;48.654;9.070;2023-04-30T13:05:53;3.10;;;2.47;;
15198;SDS011;7700;48.654;9.070;2023-04-30T13:08:19;2.75;;;2.17;;
15198;SDS011;7700;48.654;9.070;2023-04-30T13:10:46;2.58;;;2.40;;
15198;SDS011;7700;48.654;9.070;2023-04-30T13:13:13;3.00;;;2.70;;
15198;SDS011;7700;48.654;9.070;2023-04-30T13:15:39;2.63;;;2.42;;
15198;SDS011;7700;48.654;9.070;2023-04-30T13:18:06;3.00;;;2.80;;
15198;SDS011;7700;48.654;9.070;2023-04-30T13:20:36;3.83;;;3.30;;
15198;SDS011;7700;48.654;9.070;2023-04-30T13:23:02;3.10;;;2.78;;
15198;SDS011;7700;48.654;9.070;2023-04-30T13:25:28;3.05;;;2.85;;
15198;SDS011;7700;48.654;9.070;2023-04-30T13:27:54;6.18;;;2.67;;
15198;SDS011;7700;48.654;9.070;2023-04-30T13:30:21;2.85;;;2.55;;
15198;SDS011;7700;48.654;9.070;2023-04-30T13:32:47;4.22;;;3.38;;
15198;SDS011;7700;48.654;9.070;2023-04-30T13:35:13;3.67;;;2.70;;
15198;SDS011;7700;48.654;9.070;2023-04-30T13:37:39;2.65;;;2.55;;
15198;SDS011;7700;48.654;9.070;2023-04-30T13:40:08;4.43;;;4.03;;
15198;SDS011;7700;48.654;9.070;2023-04-30T13:42:37;3.28;;;2.63;;
15198;SDS011;7700;48.654;9.070;2023-04-30T13:45:06;3.08;;;2.78;;
15198;SDS011;7700;48.654;9.070;2023-04-30T13:47:33;3.03;;;2.70;;
15198;SDS011;7700;48.654;9.070;2023-04-30T13:49:59;2.70;;;2.50;;
15198;SDS011;7700;48.654;9.070;2023-04-30T13:52:25;3.88;;;2.72;;
15198;SDS011;7700;48.654;9.070;2023-04-30T13:54:51;3.33;;;2.70;;
15198;SDS011;7700;48.654;9.070;2023-04-30T13:57:17;3.25;;;2.60;;
15198;SDS011;7700;48.654;9.070;2023-04-30T13:59:43;2.63;;;2.42;;
15198;SDS011;7700;48.654;9.070;2023-04-30T14:02:09;2.75;;;2.55;;
15198;SDS011;7700;48.654;9.070;2023-04-30T14:04:35;3.00;;;2.75;;
15198;SDS011;7700;48.654;9.070;2023-04-30T14:07:02;2.83;;;2.63;;
15198;SDS011;7700;48.654;9.070;2023-04-30T14:09:28;3.95;;;2.45;;
15198;SDS011;7700;48.654;9.070;2023-04-30T14:11:55;3.05;;;2.72;;
15198;SDS011;7700;48.654;9.070;2023-04-30T14:14:22;2.65;;;2.45;;
15198;SDS011;7700;48.654;9.070;2023-04-30T14:16:49;2.70;;;2.50;;
15198;SDS011;7700;48.654;9.070;2023-04-30T14:19:15;3.22;;;2.40;;
15198;SDS011;7700;48.654;9.070;2023-04-30T14:21:41;2.80;;;2.50;;
15198;SDS011;7700;48.654;9.070;2023-04-30T14:24:07;2.70;;;2.50;;
15198;SDS011;7700;48.654;9.070;2023-04-30T14:26:35;2.33;;;2.13;;
15198;SDS011;7700;48.654;9.070;2023-04-30T14:29:01;3.33;;;2.38;;
15198;SDS011;7700;48.654;9.070;2023-04-30T14:31:27;2.25;;;2.05;;
15198;SDS011;7700;48.654;9.070;2023-04-30T14:33:53;3.40;;;2.35;;
15198;SDS011;7700;48.654;9.070;2023-04-30T14:36:19;2.60;;;2.40;;
15198;SDS011;7700;48.654;9.070;2023-04-30T14:38:45;2.67;;;2.47;;
15198;SDS011;7700;48.654;9.070;2023-04-30T14:41:11;2.17;;;1.98;;
15198;SDS011;7700;48.654;9.070;2023-04-30T14:43:37;2.53;;;2.25;;
15198;SDS011;7700;48.654;9.070;2023-04-30T14:46:04;2.47;;;2.28;;
15198;SDS011;7700;48.654;9.070;2023-04-30T14:48:30;2.47;;;2.28;;
15198;SDS011;7700;48.654;9.070;2023-04-30T14:50:57;2.60;;;2.40;;
15198;SDS011;7700;48.654;9.070;2023-04-30T14:53:25;2.80;;;2.45;;
15198;SDS011;7700;48.654;9.070;2023-04-30T14:55:51;2.70;;;2.50;;
15198;SDS011;7700;48.654;9.070;2023-04-30T14:58:17;2.90;;;2.08;;
15198;SDS011;7700;48.654;9.070;2023-04-30T15:00:44;2.38;;;2.17;;
15198;SDS011;7700;48.654;9.070;2023-04-30T15:03:18;4.88;;;2.33;;
15198;SDS011;7700;48.654;9.070;2023-04-30T15:05:45;2.83;;;2.45;;
15198;SDS011;7700;48.654;9.070;2023-04-30T15:08:12;2.40;;;2.20;;
15198;SDS011;7700;48.654;9.070;2023-04-30T15:10:38;2.80;;;2.15;;
15198;SDS011;7700;48.654;9.070;2023-04-30T15:13:04;3.72;;;2.10;;
15198;SDS011;7700;48.654;9.070;2023-04-30T15:15:30;2.63;;;2.35;;
15198;SDS011;7700;48.654;9.070;2023-04-30T15:17:57;2.22;;;2.03;;
15198;SDS011;7700;48.654;9.070;2023-04-30T15:20:23;2.33;;;2.13;;
15198;SDS011;7700;48.654;9.070;2023-04-30T15:22:49;2.25;;;2.08;;
15198;SDS011;7700;48.654;9.070;2023-04-30T15:25:15;2.60;;;2.25;;
15198;SDS011;7700;48.654;9.070;2023-04-30T15:27:42;2.65;;;2.45;;
15198;SDS011;7700;48.654;9.070;2023-04-30T15:30:08;3.35;;;2.63;;
15198;SDS011;7700;48.654;9.070;2023-04-30T15:32:35;2.85;;;2.63;;